sensor_id;sensor_type;location;lat;lon;timestamp;P1;durP1;ratioP1;P2;durP2;ratioP2
54977;SDS011;40873;47.522;19.106;2022-12-18T00:01:15;39.10;;;15.38;;
54977;SDS011;40873;47.522;19.106;2022-12-18T00:03:44;42.08;;;14.30;;
54977;SDS011;40873;47.522;19.106;2022-12-18T00:06:12;40.40;;;14.23;;
54977;SDS011;40873;47.522;19.106;2022-12-18T00:08:40;37.85;;;13.85;;
54977;SDS011;40873;47.522;19.106;2022-12-18T00:11:11;37.58;;;14.90;;
54977;SDS011;40873;47.522;19.106;2022-12-18T00:13:40;32.47;;;15.10;;
54977;SDS011;40873;47.522;19.106;2022-12-18T00:16:09;46.00;;;14.38;;
54977;SDS011;40873;47.522;19.106;2022-12-18T00:18:38;45.22;;;15.05;;
54977;SDS011;40873;47.522;19.106;2022-12-18T00:21:07;37.33;;;13.98;;
54977;SDS011;40873;47.522;19.106;2022-12-18T00:23:36;36.58;;;15.05;;
54977;SDS011;40873;47.522;19.106;2022-12-18T00:26:06;43.30;;;13.88;;
54977;SDS011;40873;47.522;19.106;2022-12-18T00:28:36;37.80;;;12.73;;
54977;SDS011;40873;47.522;19.106;2022-12-18T00:31:06;39.08;;;13.45;;
54977;SDS011;40873;47.522;19.106;2022-12-18T00:33:39;38.28;;;13.23;;
54977;SDS011;40873;47.522;19.106;2022-12-18T00:36:11;37.85;;;14.13;;
54977;SDS011;40873;47.522;19.106;2022-12-18T00:38:39;37.58;;;14.55;;
54977;SDS011;40873;47.522;19.106;2022-12-18T00:41:07;35.35;;;14.48;;
54977;SDS011;40873;47.522;19.106;2022-12-18T00:43:36;32.70;;;12.63;;
54977;SDS011;40873;47.522;19.106;2022-12-18T00:46:04;34.78;;;13.68;;
54977;SDS011;40873;47.522;19.106;2022-12-18T00:48:32;36.22;;;14.13;;
54977;SDS011;40873;47.522;19.106;2022-12-18T00:50:58;37.45;;;13.82;;
54977;SDS011;40873;47.522;19.106;2022-12-18T00:53:25;30.30;;;12.63;;
54977;SDS011;40873;47.522;19.106;2022-12-18T00:55:52;39.33;;;12.35;;
54977;SDS011;40873;47.522;19.106;2022-12-18T00:58:19;33.25;;;14.38;;
54977;SDS011;40873;47.522;19.106;2022-12-18T01:00:46;37.30;;;12.90;;
54977;SDS011;40873;47.522;19.106;2022-12-18T01:03:13;41.72;;;14.68;;
54977;SDS011;40873;47.522;19.106;2022-12-18T01:05:41;39.90;;;13.75;;
54977;SDS011;40873;47.522;19.106;2022-12-18T01:08:08;37.10;;;12.90;;
54977;SDS011;40873;47.522;19.106;2022-12-18T01:10:35;37.45;;;12.40;;
54977;SDS011;40873;47.522;19.106;2022-12-18T01:13:02;35.33;;;11.93;;
54977;SDS011;40873;47.522;19.106;2022-12-18T01:15:29;38.78;;;14.02;;
54977;SDS011;40873;47.522;19.106;2022-12-18T01:17:56;42.83;;;14.15;;
54977;SDS011;40873;47.522;19.106;2022-12-18T01:20:23;34.80;;;12.85;;
54977;SDS011;40873;47.522;19.106;2022-12-18T01:22:50;36.78;;;14.48;;
54977;SDS011;40873;47.522;19.106;2022-12-18T01:25:17;40.00;;;15.43;;
54977;SDS011;40873;47.522;19.106;2022-12-18T01:27:44;30.92;;;13.55;;
54977;SDS011;40873;47.522;19.106;2022-12-18T01:30:11;30.67;;;11.07;;
54977;SDS011;40873;47.522;19.106;2022-12-18T01:32:38;37.53;;;14.45;;
54977;SDS011;40873;47.522;19.106;2022-12-18T01:35:05;38.00;;;14.18;;
54977;SDS011;40873;47.522;19.106;2022-12-18T01:37:33;35.85;;;13.02;;
54977;SDS011;40873;47.522;19.106;2022-12-18T01:40:00;38.05;;;14.95;;
54977;SDS011;40873;47.522;19.106;2022-12-18T01:42:27;38.30;;;12.70;;
54977;SDS011;40873;47.522;19.106;2022-12-18T01:50:10;43.90;;;14.75;;
54977;SDS011;40873;47.522;19.106;2022-12-18T01:52:42;35.47;;;13.48;;
54977;SDS011;40873;47.522;19.106;2022-12-18T01:55:11;36.25;;;12.73;;
54977;SDS011;40873;47.522;19.106;2022-12-18T01:57:39;34.35;;;13.23;;
54977;SDS011;40873;47.522;19.106;2022-12-18T02:00:10;36.40;;;13.93;;
54977;SDS011;40873;47.522;19.106;2022-12-18T02:02:43;38.90;;;14.10;;
54977;SDS011;40873;47.522;19.106;2022-12-18T02:05:12;39.13;;;14.48;;
54977;SDS011;40873;47.522;19.106;2022-12-18T02:08:46;39.45;;;15.75;;
54977;SDS011;40873;47.522;19.106;2022-12-18T02:11:00;40.88;;;14.57;;
54977;SDS011;40873;47.522;19.106;2022-12-18T02:13:54;31.38;;;11.23;;
54977;SDS011;40873;47.522;19.106;2022-12-18T02:16:42;40.40;;;15.45;;
54977;SDS011;40873;47.522;19.106;2022-12-18T02:22:26;40.38;;;12.65;;
54977;SDS011;40873;47.522;19.106;2022-12-18T02:27:57;37.97;;;13.27;;
54977;SDS011;40873;47.522;19.106;2022-12-18T02:30:29;41.72;;;13.38;;
54977;SDS011;40873;47.522;19.106;2022-12-18T02:33:00;32.88;;;13.65;;
54977;SDS011;40873;47.522;19.106;2022-12-18T02:35:31;35.40;;;13.25;;
54977;SDS011;40873;47.522;19.106;2022-12-18T02:38:00;34.17;;;13.95;;
54977;SDS011;40873;47.522;19.106;2022-12-18T02:40:28;40.25;;;13.35;;
54977;SDS011;40873;47.522;19.106;2022-12-18T02:43:02;38.85;;;14.15;;
54977;SDS011;40873;47.522;19.106;2022-12-18T02:45:33;36.33;;;13.93;;
54977;SDS011;40873;47.522;19.106;2022-12-18T02:48:00;43.03;;;14.35;;
54977;SDS011;40873;47.522;19.106;2022-12-18T02:50:43;34.83;;;14.07;;
54977;SDS011;40873;47.522;19.106;2022-12-18T02:53:17;42.65;;;14.90;;
54977;SDS011;40873;47.522;19.106;2022-12-18T02:56:06;38.05;;;14.88;;
54977;SDS011;40873;47.522;19.106;2022-12-18T02:58:50;32.92;;;12.05;;
54977;SDS011;40873;47.522;19.106;2022-12-18T03:01:38;35.30;;;13.50;;
54977;SDS011;40873;47.522;19.106;2022-12-18T03:06:46;43.20;;;15.32;;
54977;SDS011;40873;47.522;19.106;2022-12-18T03:09:24;35.60;;;13.00;;
54977;SDS011;40873;47.522;19.106;2022-12-18T03:11:58;41.58;;;13.82;;
54977;SDS011;40873;47.522;19.106;2022-12-18T03:17:42;41.90;;;15.18;;
54977;SDS011;40873;47.522;19.106;2022-12-18T03:20:34;35.00;;;12.43;;
54977;SDS011;40873;47.522;19.106;2022-12-18T03:23:05;39.17;;;14.90;;
54977;SDS011;40873;47.522;19.106;2022-12-18T03:25:37;44.33;;;14.80;;
54977;SDS011;40873;47.522;19.106;2022-12-18T03:28:07;34.03;;;13.60;;
54977;SDS011;40873;47.522;19.106;2022-12-18T03:30:40;35.72;;;14.00;;
54977;SDS011;40873;47.522;19.106;2022-12-18T03:33:12;39.80;;;14.60;;
54977;SDS011;40873;47.522;19.106;2022-12-18T03:35:46;51.72;;;17.38;;
54977;SDS011;40873;47.522;19.106;2022-12-18T03:38:13;31.80;;;13.40;;
54977;SDS011;40873;47.522;19.106;2022-12-18T03:40:51;43.95;;;14.20;;
54977;SDS011;40873;47.522;19.106;2022-12-18T03:46:02;37.65;;;18.20;;
54977;SDS011;40873;47.522;19.106;2022-12-18T03:48:44;41.63;;;13.55;;
54977;SDS011;40873;47.522;19.106;2022-12-18T03:51:37;42.53;;;14.35;;
54977;SDS011;40873;47.522;19.106;2022-12-18T03:54:08;41.60;;;12.48;;
54977;SDS011;40873;47.522;19.106;2022-12-18T03:56:39;37.50;;;13.68;;
54977;SDS011;40873;47.522;19.106;2022-12-18T03:59:11;40.72;;;13.43;;
54977;SDS011;40873;47.522;19.106;2022-12-18T04:01:42;39.92;;;13.65;;
54977;SDS011;40873;47.522;19.106;2022-12-18T04:04:14;37.83;;;12.65;;
54977;SDS011;40873;47.522;19.106;2022-12-18T04:06:45;35.58;;;14.95;;
54977;SDS011;40873;47.522;19.106;2022-12-18T04:09:14;37.25;;;12.93;;
54977;SDS011;40873;47.522;19.106;2022-12-18T04:11:41;40.10;;;15.25;;
54977;SDS011;40873;47.522;19.106;2022-12-18T04:14:12;37.60;;;14.90;;
54977;SDS011;40873;47.522;19.106;2022-12-18T04:16:43;35.08;;;13.57;;
54977;SDS011;40873;47.522;19.106;2022-12-18T04:19:10;36.78;;;14.20;;
54977;SDS011;40873;47.522;19.106;2022-12-18T04:21:37;43.10;;;16.40;;
54977;SDS011;40873;47.522;19.106;2022-12-18T04:24:04;42.80;;;14.13;;
54977;SDS011;40873;47.522;19.106;2022-12-18T04:26:31;47.03;;;15.48;;
54977;SDS011;40873;47.522;19.106;2022-12-18T04:28:58;39.63;;;15.30;;
54977;SDS011;40873;47.522;19.106;2022-12-18T04:31:25;43.15;;;15.65;;
54977;SDS011;40873;47.522;19.106;2022-12-18T04:33:52;42.40;;;12.98;;
54977;SDS011;40873;47.522;19.106;2022-12-18T04:36:19;38.83;;;13.70;;
54977;SDS011;40873;47.522;19.106;2022-12-18T04:38:46;43.38;;;14.93;;
54977;SDS011;40873;47.522;19.106;2022-12-18T04:41:13;51.40;;;15.05;;
54977;SDS011;40873;47.522;19.106;2022-12-18T04:43:40;35.65;;;11.98;;
54977;SDS011;40873;47.522;19.106;2022-12-18T04:46:07;39.33;;;14.30;;
54977;SDS011;40873;47.522;19.106;2022-12-18T04:48:35;42.65;;;14.60;;
54977;SDS011;40873;47.522;19.106;2022-12-18T04:51:03;35.95;;;13.52;;
54977;SDS011;40873;47.522;19.106;2022-12-18T04:53:31;37.38;;;14.60;;
54977;SDS011;40873;47.522;19.106;2022-12-18T04:56:05;43.22;;;15.45;;
54977;SDS011;40873;47.522;19.106;2022-12-18T04:58:37;39.55;;;12.98;;
54977;SDS011;40873;47.522;19.106;2022-12-18T05:01:05;39.15;;;13.38;;
54977;SDS011;40873;47.522;19.106;2022-12-18T05:03:36;34.60;;;12.68;;
54977;SDS011;40873;47.522;19.106;2022-12-18T05:06:05;40.83;;;13.52;;
54977;SDS011;40873;47.522;19.106;2022-12-18T05:08:32;47.05;;;13.63;;
54977;SDS011;40873;47.522;19.106;2022-12-18T05:11:00;38.92;;;14.18;;
54977;SDS011;40873;47.522;19.106;2022-12-18T05:13:28;36.95;;;13.27;;
54977;SDS011;40873;47.522;19.106;2022-12-18T05:15:55;35.75;;;13.15;;
54977;SDS011;40873;47.522;19.106;2022-12-18T05:18:23;39.83;;;12.43;;
54977;SDS011;40873;47.522;19.106;2022-12-18T05:20:51;42.63;;;13.82;;
54977;SDS011;40873;47.522;19.106;2022-12-18T05:23:19;34.25;;;11.90;;
54977;SDS011;40873;47.522;19.106;2022-12-18T05:25:56;34.03;;;13.80;;
54977;SDS011;40873;47.522;19.106;2022-12-18T05:28:25;36.58;;;15.95;;
54977;SDS011;40873;47.522;19.106;2022-12-18T05:30:55;39.67;;;13.98;;
54977;SDS011;40873;47.522;19.106;2022-12-18T05:33:24;38.45;;;12.63;;
54977;SDS011;40873;47.522;19.106;2022-12-18T05:35:55;42.08;;;15.10;;
54977;SDS011;40873;47.522;19.106;2022-12-18T05:38:24;38.53;;;13.48;;
54977;SDS011;40873;47.522;19.106;2022-12-18T05:40:53;40.40;;;14.02;;
54977;SDS011;40873;47.522;19.106;2022-12-18T05:43:20;32.67;;;14.00;;
54977;SDS011;40873;47.522;19.106;2022-12-18T05:45:48;41.83;;;16.00;;
54977;SDS011;40873;47.522;19.106;2022-12-18T05:48:16;37.55;;;15.07;;
54977;SDS011;40873;47.522;19.106;2022-12-18T05:50:43;36.38;;;13.32;;
54977;SDS011;40873;47.522;19.106;2022-12-18T05:53:12;37.00;;;15.75;;
54977;SDS011;40873;47.522;19.106;2022-12-18T05:55:41;39.25;;;14.93;;
54977;SDS011;40873;47.522;19.106;2022-12-18T05:58:09;44.92;;;15.63;;
54977;SDS011;40873;47.522;19.106;2022-12-18T06:00:38;39.30;;;14.73;;
54977;SDS011;40873;47.522;19.106;2022-12-18T06:03:09;40.92;;;14.25;;
54977;SDS011;40873;47.522;19.106;2022-12-18T06:05:38;40.60;;;14.48;;
54977;SDS011;40873;47.522;19.106;2022-12-18T06:08:06;44.13;;;14.90;;
54977;SDS011;40873;47.522;19.106;2022-12-18T06:10:34;46.10;;;14.18;;
54977;SDS011;40873;47.522;19.106;2022-12-18T06:13:01;35.85;;;13.00;;
54977;SDS011;40873;47.522;19.106;2022-12-18T06:15:31;45.10;;;12.57;;
54977;SDS011;40873;47.522;19.106;2022-12-18T06:18:00;46.33;;;13.65;;
54977;SDS011;40873;47.522;19.106;2022-12-18T06:20:27;39.35;;;14.80;;
54977;SDS011;40873;47.522;19.106;2022-12-18T06:22:59;34.70;;;13.65;;
54977;SDS011;40873;47.522;19.106;2022-12-18T06:25:26;37.88;;;13.98;;
54977;SDS011;40873;47.522;19.106;2022-12-18T06:27:53;33.17;;;13.52;;
54977;SDS011;40873;47.522;19.106;2022-12-18T06:30:20;33.20;;;13.43;;
54977;SDS011;40873;47.522;19.106;2022-12-18T06:32:47;36.65;;;14.02;;
54977;SDS011;40873;47.522;19.106;2022-12-18T06:35:21;35.95;;;14.60;;
54977;SDS011;40873;47.522;19.106;2022-12-18T06:37:49;43.92;;;13.98;;
54977;SDS011;40873;47.522;19.106;2022-12-18T06:40:16;47.55;;;15.20;;
54977;SDS011;40873;47.522;19.106;2022-12-18T06:42:43;35.30;;;14.15;;
54977;SDS011;40873;47.522;19.106;2022-12-18T06:45:10;36.92;;;14.02;;
54977;SDS011;40873;47.522;19.106;2022-12-18T06:47:38;37.42;;;13.30;;
54977;SDS011;40873;47.522;19.106;2022-12-18T06:50:04;41.28;;;15.77;;
54977;SDS011;40873;47.522;19.106;2022-12-18T06:52:33;46.78;;;16.48;;
54977;SDS011;40873;47.522;19.106;2022-12-18T06:55:00;34.22;;;13.55;;
54977;SDS011;40873;47.522;19.106;2022-12-18T06:57:27;45.95;;;18.15;;
54977;SDS011;40873;47.522;19.106;2022-12-18T06:59:54;39.92;;;16.33;;
54977;SDS011;40873;47.522;19.106;2022-12-18T07:02:21;39.95;;;15.35;;
54977;SDS011;40873;47.522;19.106;2022-12-18T07:04:48;41.22;;;16.17;;
54977;SDS011;40873;47.522;19.106;2022-12-18T07:07:15;48.83;;;17.30;;
54977;SDS011;40873;47.522;19.106;2022-12-18T07:09:42;42.88;;;17.88;;
54977;SDS011;40873;47.522;19.106;2022-12-18T07:12:09;42.03;;;17.35;;
54977;SDS011;40873;47.522;19.106;2022-12-18T07:14:36;44.88;;;16.10;;
54977;SDS011;40873;47.522;19.106;2022-12-18T07:17:03;44.45;;;16.70;;
54977;SDS011;40873;47.522;19.106;2022-12-18T07:19:31;38.97;;;14.93;;
54977;SDS011;40873;47.522;19.106;2022-12-18T07:21:59;46.80;;;15.77;;
54977;SDS011;40873;47.522;19.106;2022-12-18T07:24:26;40.28;;;15.38;;
54977;SDS011;40873;47.522;19.106;2022-12-18T07:26:54;45.13;;;17.05;;
54977;SDS011;40873;47.522;19.106;2022-12-18T07:29:21;52.20;;;16.55;;
54977;SDS011;40873;47.522;19.106;2022-12-18T07:31:50;41.10;;;15.80;;
54977;SDS011;40873;47.522;19.106;2022-12-18T07:34:17;43.80;;;16.83;;
54977;SDS011;40873;47.522;19.106;2022-12-18T07:36:44;45.33;;;14.63;;
54977;SDS011;40873;47.522;19.106;2022-12-18T07:39:11;36.42;;;14.85;;
54977;SDS011;40873;47.522;19.106;2022-12-18T07:41:38;37.67;;;13.95;;
54977;SDS011;40873;47.522;19.106;2022-12-18T07:44:12;42.15;;;14.73;;
54977;SDS011;40873;47.522;19.106;2022-12-18T07:46:39;33.92;;;13.55;;
54977;SDS011;40873;47.522;19.106;2022-12-18T07:49:06;43.22;;;15.02;;
54977;SDS011;40873;47.522;19.106;2022-12-18T07:51:33;38.85;;;15.38;;
54977;SDS011;40873;47.522;19.106;2022-12-18T07:54:00;41.70;;;13.73;;
54977;SDS011;40873;47.522;19.106;2022-12-18T07:56:27;40.08;;;13.63;;
54977;SDS011;40873;47.522;19.106;2022-12-18T07:58:57;39.88;;;15.02;;
54977;SDS011;40873;47.522;19.106;2022-12-18T08:01:25;42.45;;;14.15;;
54977;SDS011;40873;47.522;19.106;2022-12-18T08:03:52;44.08;;;15.55;;
54977;SDS011;40873;47.522;19.106;2022-12-18T08:06:19;34.30;;;13.98;;
54977;SDS011;40873;47.522;19.106;2022-12-18T08:08:52;37.15;;;13.73;;
54977;SDS011;40873;47.522;19.106;2022-12-18T08:11:21;34.20;;;14.93;;
54977;SDS011;40873;47.522;19.106;2022-12-18T08:13:49;38.17;;;12.65;;
54977;SDS011;40873;47.522;19.106;2022-12-18T08:16:16;34.17;;;14.73;;
54977;SDS011;40873;47.522;19.106;2022-12-18T08:18:43;42.05;;;14.95;;
54977;SDS011;40873;47.522;19.106;2022-12-18T08:21:10;36.95;;;13.63;;
54977;SDS011;40873;47.522;19.106;2022-12-18T08:23:39;38.38;;;14.27;;
54977;SDS011;40873;47.522;19.106;2022-12-18T08:26:10;42.88;;;13.90;;
54977;SDS011;40873;47.522;19.106;2022-12-18T08:28:38;42.10;;;14.68;;
54977;SDS011;40873;47.522;19.106;2022-12-18T08:31:08;39.53;;;14.98;;
54977;SDS011;40873;47.522;19.106;2022-12-18T08:33:35;40.15;;;15.45;;
54977;SDS011;40873;47.522;19.106;2022-12-18T08:36:05;44.88;;;15.95;;
54977;SDS011;40873;47.522;19.106;2022-12-18T08:38:32;45.38;;;17.05;;
54977;SDS011;40873;47.522;19.106;2022-12-18T08:41:06;38.22;;;16.33;;
54977;SDS011;40873;47.522;19.106;2022-12-18T08:43:35;42.15;;;14.50;;
54977;SDS011;40873;47.522;19.106;2022-12-18T08:46:22;45.20;;;15.10;;
54977;SDS011;40873;47.522;19.106;2022-12-18T08:48:51;37.47;;;14.75;;
54977;SDS011;40873;47.522;19.106;2022-12-18T08:51:19;38.63;;;14.30;;
54977;SDS011;40873;47.522;19.106;2022-12-18T08:53:46;37.83;;;16.27;;
54977;SDS011;40873;47.522;19.106;2022-12-18T08:56:14;34.97;;;14.20;;
54977;SDS011;40873;47.522;19.106;2022-12-18T08:58:42;42.80;;;15.88;;
54977;SDS011;40873;47.522;19.106;2022-12-18T09:01:10;40.47;;;15.55;;
54977;SDS011;40873;47.522;19.106;2022-12-18T09:03:38;36.53;;;16.67;;
54977;SDS011;40873;47.522;19.106;2022-12-18T09:06:07;39.22;;;15.77;;
54977;SDS011;40873;47.522;19.106;2022-12-18T09:08:34;41.83;;;16.77;;
54977;SDS011;40873;47.522;19.106;2022-12-18T09:11:02;35.65;;;14.05;;
54977;SDS011;40873;47.522;19.106;2022-12-18T09:13:29;44.97;;;14.25;;
54977;SDS011;40873;47.522;19.106;2022-12-18T09:15:56;39.17;;;14.95;;
54977;SDS011;40873;47.522;19.106;2022-12-18T09:18:23;38.75;;;15.18;;
54977;SDS011;40873;47.522;19.106;2022-12-18T09:20:51;39.92;;;15.93;;
54977;SDS011;40873;47.522;19.106;2022-12-18T09:23:19;51.03;;;16.20;;
54977;SDS011;40873;47.522;19.106;2022-12-18T09:25:49;42.15;;;15.13;;
54977;SDS011;40873;47.522;19.106;2022-12-18T09:28:16;47.13;;;16.23;;
54977;SDS011;40873;47.522;19.106;2022-12-18T09:30:46;48.88;;;16.13;;
54977;SDS011;40873;47.522;19.106;2022-12-18T09:33:14;37.53;;;14.77;;
54977;SDS011;40873;47.522;19.106;2022-12-18T09:35:43;40.75;;;16.33;;
54977;SDS011;40873;47.522;19.106;2022-12-18T09:38:12;38.05;;;16.00;;
54977;SDS011;40873;47.522;19.106;2022-12-18T09:40:45;54.88;;;17.80;;
54977;SDS011;40873;47.522;19.106;2022-12-18T09:43:18;50.00;;;17.48;;
54977;SDS011;40873;47.522;19.106;2022-12-18T09:45:51;41.67;;;16.50;;
54977;SDS011;40873;47.522;19.106;2022-12-18T09:48:32;38.10;;;16.13;;
54977;SDS011;40873;47.522;19.106;2022-12-18T09:51:06;46.55;;;17.98;;
54977;SDS011;40873;47.522;19.106;2022-12-18T09:53:39;44.47;;;16.60;;
54977;SDS011;40873;47.522;19.106;2022-12-18T09:56:12;39.25;;;14.95;;
54977;SDS011;40873;47.522;19.106;2022-12-18T09:59:00;38.55;;;15.30;;
54977;SDS011;40873;47.522;19.106;2022-12-18T10:01:29;37.75;;;16.15;;
54977;SDS011;40873;47.522;19.106;2022-12-18T10:04:08;31.38;;;14.32;;
54977;SDS011;40873;47.522;19.106;2022-12-18T10:12:24;33.85;;;15.05;;
54977;SDS011;40873;47.522;19.106;2022-12-18T10:15:06;38.25;;;15.10;;
54977;SDS011;40873;47.522;19.106;2022-12-18T10:17:50;38.60;;;15.77;;
54977;SDS011;40873;47.522;19.106;2022-12-18T10:20:37;38.30;;;15.88;;
54977;SDS011;40873;47.522;19.106;2022-12-18T10:28:36;39.75;;;16.30;;
54977;SDS011;40873;47.522;19.106;2022-12-18T10:31:39;37.58;;;14.82;;
54977;SDS011;40873;47.522;19.106;2022-12-18T10:33:59;39.93;;;15.83;;
54977;SDS011;40873;47.522;19.106;2022-12-18T10:36:26;45.47;;;17.08;;
54977;SDS011;40873;47.522;19.106;2022-12-18T10:38:53;44.25;;;17.52;;
54977;SDS011;40873;47.522;19.106;2022-12-18T10:44:10;35.30;;;15.02;;
54977;SDS011;40873;47.522;19.106;2022-12-18T10:46:47;32.50;;;13.88;;
54977;SDS011;40873;47.522;19.106;2022-12-18T10:49:21;31.85;;;13.68;;
54977;SDS011;40873;47.522;19.106;2022-12-18T10:54:50;37.63;;;16.45;;
54977;SDS011;40873;47.522;19.106;2022-12-18T10:57:38;33.67;;;14.10;;
54977;SDS011;40873;47.522;19.106;2022-12-18T11:02:47;38.75;;;15.30;;
54977;SDS011;40873;47.522;19.106;2022-12-18T11:05:26;38.80;;;15.80;;
54977;SDS011;40873;47.522;19.106;2022-12-18T11:07:53;39.78;;;14.35;;
54977;SDS011;40873;47.522;19.106;2022-12-18T11:10:21;37.63;;;14.68;;
54977;SDS011;40873;47.522;19.106;2022-12-18T11:12:55;37.88;;;13.68;;
54977;SDS011;40873;47.522;19.106;2022-12-18T11:15:29;34.15;;;15.25;;
54977;SDS011;40873;47.522;19.106;2022-12-18T11:17:56;33.63;;;14.65;;
54977;SDS011;40873;47.522;19.106;2022-12-18T11:20:27;38.70;;;15.27;;
54977;SDS011;40873;47.522;19.106;2022-12-18T11:22:59;33.22;;;14.18;;
54977;SDS011;40873;47.522;19.106;2022-12-18T11:25:29;34.78;;;15.05;;
54977;SDS011;40873;47.522;19.106;2022-12-18T11:28:01;32.75;;;13.20;;
54977;SDS011;40873;47.522;19.106;2022-12-18T11:30:34;38.65;;;15.02;;
54977;SDS011;40873;47.522;19.106;2022-12-18T11:33:06;31.83;;;12.20;;
54977;SDS011;40873;47.522;19.106;2022-12-18T11:35:43;33.67;;;13.85;;
54977;SDS011;40873;47.522;19.106;2022-12-18T11:41:02;36.38;;;13.40;;
54977;SDS011;40873;47.522;19.106;2022-12-18T11:46:43;29.63;;;14.20;;
54977;SDS011;40873;47.522;19.106;2022-12-18T11:49:13;30.15;;;12.25;;
54977;SDS011;40873;47.522;19.106;2022-12-18T11:51:56;32.10;;;13.60;;
54977;SDS011;40873;47.522;19.106;2022-12-18T11:54:29;28.92;;;12.52;;
54977;SDS011;40873;47.522;19.106;2022-12-18T11:57:13;35.30;;;14.15;;
54977;SDS011;40873;47.522;19.106;2022-12-18T12:00:15;33.20;;;14.30;;
54977;SDS011;40873;47.522;19.106;2022-12-18T12:25:33;33.58;;;12.55;;
54977;SDS011;40873;47.522;19.106;2022-12-18T12:38:54;31.20;;;13.10;;
54977;SDS011;40873;47.522;19.106;2022-12-18T12:41:27;35.08;;;13.70;;
54977;SDS011;40873;47.522;19.106;2022-12-18T12:44:28;29.45;;;13.15;;
54977;SDS011;40873;47.522;19.106;2022-12-18T12:47:01;33.63;;;14.55;;
54977;SDS011;40873;47.522;19.106;2022-12-18T12:52:27;30.50;;;13.32;;
54977;SDS011;40873;47.522;19.106;2022-12-18T12:54:55;29.38;;;12.57;;
54977;SDS011;40873;47.522;19.106;2022-12-18T12:57:26;28.42;;;12.93;;
54977;SDS011;40873;47.522;19.106;2022-12-18T13:05:22;34.05;;;14.88;;
54977;SDS011;40873;47.522;19.106;2022-12-18T13:10:36;31.92;;;13.07;;
54977;SDS011;40873;47.522;19.106;2022-12-18T13:13:05;30.80;;;13.07;;
54977;SDS011;40873;47.522;19.106;2022-12-18T13:20:38;39.00;;;14.45;;
54977;SDS011;40873;47.522;19.106;2022-12-18T13:25:59;27.02;;;12.57;;
54977;SDS011;40873;47.522;19.106;2022-12-18T13:36:55;39.95;;;13.65;;
54977;SDS011;40873;47.522;19.106;2022-12-18T13:39:43;32.58;;;12.90;;
54977;SDS011;40873;47.522;19.106;2022-12-18T13:44:58;33.53;;;13.32;;
54977;SDS011;40873;47.522;19.106;2022-12-18T13:47:32;30.60;;;12.02;;
54977;SDS011;40873;47.522;19.106;2022-12-18T13:50:04;31.27;;;12.95;;
54977;SDS011;40873;47.522;19.106;2022-12-18T13:52:37;34.15;;;14.07;;
54977;SDS011;40873;47.522;19.106;2022-12-18T13:55:07;29.40;;;14.23;;
54977;SDS011;40873;47.522;19.106;2022-12-18T13:57:42;32.83;;;12.27;;
54977;SDS011;40873;47.522;19.106;2022-12-18T14:02:51;31.95;;;13.77;;
54977;SDS011;40873;47.522;19.106;2022-12-18T14:05:26;33.85;;;13.15;;
54977;SDS011;40873;47.522;19.106;2022-12-18T14:07:59;33.85;;;13.68;;
54977;SDS011;40873;47.522;19.106;2022-12-18T14:10:34;31.08;;;14.35;;
54977;SDS011;40873;47.522;19.106;2022-12-18T14:13:18;34.58;;;13.02;;
54977;SDS011;40873;47.522;19.106;2022-12-18T14:15:50;36.13;;;13.90;;
54977;SDS011;40873;47.522;19.106;2022-12-18T14:20:50;40.80;;;15.77;;
54977;SDS011;40873;47.522;19.106;2022-12-18T14:23:35;31.50;;;13.50;;
54977;SDS011;40873;47.522;19.106;2022-12-18T14:26:24;40.60;;;14.38;;
54977;SDS011;40873;47.522;19.106;2022-12-18T14:28:56;29.52;;;14.73;;
54977;SDS011;40873;47.522;19.106;2022-12-18T14:31:25;36.50;;;15.30;;
54977;SDS011;40873;47.522;19.106;2022-12-18T14:33:53;46.47;;;17.65;;
54977;SDS011;40873;47.522;19.106;2022-12-18T14:36:22;41.97;;;17.08;;
54977;SDS011;40873;47.522;19.106;2022-12-18T14:38:51;47.38;;;18.90;;
54977;SDS011;40873;47.522;19.106;2022-12-18T14:41:21;45.17;;;19.05;;
54977;SDS011;40873;47.522;19.106;2022-12-18T14:43:52;49.88;;;18.02;;
54977;SDS011;40873;47.522;19.106;2022-12-18T14:46:28;51.92;;;20.85;;
54977;SDS011;40873;47.522;19.106;2022-12-18T14:49:15;49.20;;;18.63;;
54977;SDS011;40873;47.522;19.106;2022-12-18T14:51:48;45.00;;;20.05;;
54977;SDS011;40873;47.522;19.106;2022-12-18T14:54:18;46.78;;;18.25;;
54977;SDS011;40873;47.522;19.106;2022-12-18T14:56:47;50.10;;;21.02;;
54977;SDS011;40873;47.522;19.106;2022-12-18T14:59:21;45.63;;;19.20;;
54977;SDS011;40873;47.522;19.106;2022-12-18T15:07:06;48.45;;;18.13;;
54977;SDS011;40873;47.522;19.106;2022-12-18T15:09:37;48.83;;;18.08;;
54977;SDS011;40873;47.522;19.106;2022-12-18T15:25:57;45.95;;;19.27;;
54977;SDS011;40873;47.522;19.106;2022-12-18T15:28:29;39.53;;;17.10;;
54977;SDS011;40873;47.522;19.106;2022-12-18T15:31:02;52.00;;;20.80;;
54977;SDS011;40873;47.522;19.106;2022-12-18T15:33:31;46.30;;;19.23;;
54977;SDS011;40873;47.522;19.106;2022-12-18T15:36:00;48.28;;;18.92;;
54977;SDS011;40873;47.522;19.106;2022-12-18T15:38:35;48.55;;;19.50;;
54977;SDS011;40873;47.522;19.106;2022-12-18T15:41:02;50.17;;;18.27;;
54977;SDS011;40873;47.522;19.106;2022-12-18T15:43:40;49.40;;;18.70;;
54977;SDS011;40873;47.522;19.106;2022-12-18T15:46:11;51.22;;;20.70;;
54977;SDS011;40873;47.522;19.106;2022-12-18T15:48:42;60.50;;;19.88;;
54977;SDS011;40873;47.522;19.106;2022-12-18T15:51:18;48.60;;;19.35;;
54977;SDS011;40873;47.522;19.106;2022-12-18T15:53:48;45.08;;;19.08;;
54977;SDS011;40873;47.522;19.106;2022-12-18T15:56:18;43.63;;;20.13;;
54977;SDS011;40873;47.522;19.106;2022-12-18T15:59:13;48.53;;;19.02;;
54977;SDS011;40873;47.522;19.106;2022-12-18T16:01:41;47.60;;;19.88;;
54977;SDS011;40873;47.522;19.106;2022-12-18T16:04:12;45.05;;;18.73;;
54977;SDS011;40873;47.522;19.106;2022-12-18T16:06:40;52.83;;;19.55;;
54977;SDS011;40873;47.522;19.106;2022-12-18T16:09:28;50.75;;;19.02;;
54977;SDS011;40873;47.522;19.106;2022-12-18T16:11:54;49.60;;;20.00;;
54977;SDS011;40873;47.522;19.106;2022-12-18T16:14:22;55.88;;;19.80;;
54977;SDS011;40873;47.522;19.106;2022-12-18T16:16:54;51.75;;;20.27;;
54977;SDS011;40873;47.522;19.106;2022-12-18T16:19:22;50.38;;;20.98;;
54977;SDS011;40873;47.522;19.106;2022-12-18T16:21:51;46.13;;;20.55;;
54977;SDS011;40873;47.522;19.106;2022-12-18T16:24:20;56.45;;;22.38;;
54977;SDS011;40873;47.522;19.106;2022-12-18T16:26:49;54.92;;;21.13;;
54977;SDS011;40873;47.522;19.106;2022-12-18T16:29:18;51.83;;;18.83;;
54977;SDS011;40873;47.522;19.106;2022-12-18T16:31:51;48.90;;;19.63;;
54977;SDS011;40873;47.522;19.106;2022-12-18T16:36:58;43.17;;;21.05;;
54977;SDS011;40873;47.522;19.106;2022-12-18T16:39:33;48.15;;;20.23;;
54977;SDS011;40873;47.522;19.106;2022-12-18T16:42:05;47.47;;;19.55;;
54977;SDS011;40873;47.522;19.106;2022-12-18T16:44:43;43.05;;;20.02;;
54977;SDS011;40873;47.522;19.106;2022-12-18T16:47:10;51.38;;;19.95;;